Language: 


Des rapports , des résumés tant et plus, au choix de chacun....


Données Historiques de Météogheer
Journalier Rapport pour Mars 13, 2017 Unitée:  Les deux    Impériale   Métrique
Suivant Jour »
Journalier Hebdomadaire Mensuel Annuel Sur mesure
  Max: Min: Moyenne:
Température: 58.3 °F /  14.6 °C 37.8 °F /  3.2 °C 47.5 °F /  8.6 °C
Point de rosée: 52.2 °F /  11.2 °C 36.5 °F /  2.5 °C 43.9 °F /  6.6 °C
Humidité: 98% 67% 88%
Vent: 10.5mph /  16.9km/h - 3mph /  4.9km/h
Rafales: 13.2mph /  21.2km/h - -
Vent- - NW
Pression: 30.5 in /  1032.1 hPa 30 in /  1016.8 hPa -
Pluie: 0 in /  0.0 mm    
Historical Graphs
 
 
Données tabulaires pour Mars 13, 2017
Heure Température Point de rosée Pression Vent Vent Rafales Humidité Pluie Taux (Horaire) Conditions
00:03 42.1 °F /  5.6 °C 38.5 °F /  3.6 °C 30in /  1016.8hPa Calm   1.6mph /  2.6km/h 87% 0in /  0.0mm
00:08 41.9 °F /  5.5 °C 38.3 °F /  3.5 °C 30in /  1016.8hPa Calm   3.1mph /  5.0km/h 87% 0in /  0.0mm
00:13 42.1 °F /  5.6 °C 38.5 °F /  3.6 °C 30in /  1016.8hPa NW 2mph /  3.2km/h 3.1mph /  5.0km/h 87% 0in /  0.0mm
00:18 42.4 °F /  5.8 °C 39 °F /  3.9 °C 30in /  1016.8hPa Calm   3.1mph /  5.0km/h 88% 0in /  0.0mm
00:23 42.6 °F /  5.9 °C 39.6 °F /  4.2 °C 30.1in /  1018.2hPa WNW 3.1mph /  5.0km/h 3.8mph /  6.1km/h 89% 0in /  0.0mm
00:28 43.2 °F /  6.2 °C 40.6 °F /  4.8 °C 30.1in /  1018.2hPa North 2.5mph /  4.0km/h 5.4mph /  8.7km/h 91% 0in /  0.0mm
00:33 43.5 °F /  6.4 °C 41.4 °F /  5.2 °C 30.1in /  1018.2hPa NW 2mph /  3.2km/h 5.4mph /  8.7km/h 92% 0in /  0.0mm
00:38 43.5 °F /  6.4 °C 41.4 °F /  5.2 °C 30.1in /  1018.2hPa WNW 3.4mph /  5.5km/h 5.6mph /  9.0km/h 92% 0in /  0.0mm
00:43 43.5 °F /  6.4 °C 41 °F /  5.0 °C 30.1in /  1018.2hPa Calm   5.6mph /  9.0km/h 91% 0in /  0.0mm
00:48 43.5 °F /  6.4 °C 41 °F /  5.0 °C 30.1in /  1018.2hPa Calm   4.3mph /  6.9km/h 91% 0in /  0.0mm
00:53 43.3 °F /  6.3 °C 40.8 °F /  4.9 °C 30.1in /  1018.2hPa Calm   3.1mph /  5.0km/h 91% 0in /  0.0mm
00:58 43.3 °F /  6.3 °C 40.8 °F /  4.9 °C 30.1in /  1018.2hPa NW 0.9mph /  1.4km/h 4mph /  6.4km/h 91% 0in /  0.0mm
01:03 43.3 °F /  6.3 °C 40.8 °F /  4.9 °C 30.1in /  1018.2hPa Calm   4mph /  6.4km/h 91% 0in /  0.0mm
01:08 43.2 °F /  6.2 °C 40.6 °F /  4.8 °C 30.1in /  1018.8hPa Calm   4.3mph /  6.9km/h 91% 0in /  0.0mm
01:13 43.3 °F /  6.3 °C 40.8 °F /  4.9 °C 30.1in /  1018.8hPa West 3.1mph /  5.0km/h 5.4mph /  8.7km/h 91% 0in /  0.0mm
01:18 43.3 °F /  6.3 °C 40.8 °F /  4.9 °C 30.1in /  1018.8hPa West 2.5mph /  4.0km/h 5.4mph /  8.7km/h 91% 0in /  0.0mm
01:23 43.3 °F /  6.3 °C 41.2 °F /  5.1 °C 30.1in /  1018.8hPa WNW 1.6mph /  2.6km/h 4.7mph /  7.6km/h 92% 0in /  0.0mm
01:28 43.2 °F /  6.2 °C 40.8 °F /  4.9 °C 30.1in /  1018.8hPa Calm   4.3mph /  6.9km/h 92% 0in /  0.0mm
01:33 42.8 °F /  6.0 °C 40.3 °F /  4.6 °C 30.1in /  1018.8hPa Calm   3.1mph /  5.0km/h 91% 0in /  0.0mm
01:38 42.6 °F /  5.9 °C 40.1 °F /  4.5 °C 30.1in /  1018.8hPa Calm   2mph /  3.2km/h 91% 0in /  0.0mm
01:43 42.3 °F /  5.7 °C 39.7 °F /  4.3 °C 30.1in /  1018.8hPa Calm   2mph /  3.2km/h 91% 0in /  0.0mm
01:48 42.4 °F /  5.8 °C 40.5 °F /  4.7 °C 30.1in /  1018.8hPa North 1.1mph /  1.8km/h 3.6mph /  5.8km/h 93% 0in /  0.0mm
01:53 42.8 °F /  6.0 °C 40.8 °F /  4.9 °C 30.1in /  1018.8hPa WNW 6.3mph /  10.1km/h 6.3mph /  10.1km/h 93% 0in /  0.0mm
01:58 43.2 °F /  6.2 °C 41.5 °F /  5.3 °C 30.1in /  1018.8hPa North 3.8mph /  6.1km/h 6.3mph /  10.1km/h 94% 0in /  0.0mm
02:03 43.3 °F /  6.3 °C 42.1 °F /  5.6 °C 30.1in /  1018.8hPa NNW 2mph /  3.2km/h 3.8mph /  6.1km/h 95% 0in /  0.0mm
02:08 43.5 °F /  6.4 °C 42.1 °F /  5.6 °C 30.1in /  1018.8hPa Calm   6mph /  9.7km/h 95% 0in /  0.0mm
02:13 43.3 °F /  6.3 °C 42.1 °F /  5.6 °C 30.1in /  1018.8hPa Calm   6mph /  9.7km/h 95% 0in /  0.0mm
02:18 43.2 °F /  6.2 °C 41.5 °F /  5.3 °C 30.1in /  1018.8hPa WSW 2mph /  3.2km/h 4mph /  6.4km/h 94% 0in /  0.0mm
02:23 43 °F /  6.1 °C 41.4 °F /  5.2 °C 30.1in /  1018.8hPa WSW 0.9mph /  1.4km/h 3.8mph /  6.1km/h 94% 0in /  0.0mm
02:28 42.6 °F /  5.9 °C 40.6 °F /  4.8 °C 30.1in /  1018.8hPa Calm   2.5mph /  4.0km/h 93% 0in /  0.0mm
02:33 42.3 °F /  5.7 °C 40.5 °F /  4.7 °C 30.1in /  1018.8hPa WNW 0.9mph /  1.4km/h 2.5mph /  4.0km/h 93% 0in /  0.0mm
02:38 42.3 °F /  5.7 °C 40.6 °F /  4.8 °C 30.1in /  1018.8hPa WNW 2.9mph /  4.7km/h 3.8mph /  6.1km/h 94% 0in /  0.0mm
02:43 42.3 °F /  5.7 °C 40.6 °F /  4.8 °C 30.1in /  1018.8hPa WNW 0.9mph /  1.4km/h 3.8mph /  6.1km/h 94% 0in /  0.0mm
02:48 42.3 °F /  5.7 °C 40.8 °F /  4.9 °C 30.1in /  1018.8hPa West 1.3mph /  2.1km/h 3.8mph /  6.1km/h 95% 0in /  0.0mm
02:53 42.1 °F /  5.6 °C 40.5 °F /  4.7 °C 30.1in /  1018.8hPa WSW 1.3mph /  2.1km/h 3.4mph /  5.5km/h 94% 0in /  0.0mm
02:58 41.4 °F /  5.2 °C 39.6 °F /  4.2 °C 30.1in /  1018.8hPa WSW 2.5mph /  4.0km/h 3.4mph /  5.5km/h 93% 0in /  0.0mm
03:03 40.6 °F /  4.8 °C 38.8 °F /  3.8 °C 30.1in /  1018.8hPa Calm   2.9mph /  4.7km/h 93% 0in /  0.0mm
03:08 40.3 °F /  4.6 °C 38.5 °F /  3.6 °C 30.1in /  1018.8hPa WSW 1.1mph /  1.8km/h 1.6mph /  2.6km/h 93% 0in /  0.0mm
03:13 40.1 °F /  4.5 °C 38.3 °F /  3.5 °C 30.1in /  1018.8hPa West 1.1mph /  1.8km/h 4.3mph /  6.9km/h 93% 0in /  0.0mm
03:18 40.1 °F /  4.5 °C 38.5 °F /  3.6 °C 30.1in /  1018.8hPa West 2mph /  3.2km/h 4.3mph /  6.9km/h 94% 0in /  0.0mm
03:23 40.3 °F /  4.6 °C 39 °F /  3.9 °C 30.1in /  1019.9hPa West 2.9mph /  4.7km/h 4.3mph /  6.9km/h 95% 0in /  0.0mm
03:28 40.6 °F /  4.8 °C 39.4 °F /  4.1 °C 30.1in /  1019.9hPa West 2.5mph /  4.0km/h 3.6mph /  5.8km/h 95% 0in /  0.0mm
03:33 40.8 °F /  4.9 °C 39.6 °F /  4.2 °C 30.1in /  1019.9hPa Calm   3.6mph /  5.8km/h 95% 0in /  0.0mm
03:38 41 °F /  5.0 °C 39.9 °F /  4.4 °C 30.1in /  1019.9hPa Calm   3.1mph /  5.0km/h 96% 0in /  0.0mm
03:43 41 °F /  5.0 °C 39.9 °F /  4.4 °C 30.1in /  1019.9hPa West 2mph /  3.2km/h 3.6mph /  5.8km/h 96% 0in /  0.0mm
03:48 41.4 °F /  5.2 °C 40.3 °F /  4.6 °C 30.1in /  1019.9hPa West 2mph /  3.2km/h 3.8mph /  6.1km/h 96% 0in /  0.0mm
03:53 41.5 °F /  5.3 °C 40.5 °F /  4.7 °C 30.1in /  1019.9hPa West 2.2mph /  3.5km/h 3.8mph /  6.1km/h 96% 0in /  0.0mm
03:58 41.7 °F /  5.4 °C 40.6 °F /  4.8 °C 30.1in /  1019.9hPa West 2.2mph /  3.5km/h 3.8mph /  6.1km/h 96% 0in /  0.0mm
04:03 41.7 °F /  5.4 °C 40.6 °F /  4.8 °C 30.1in /  1019.9hPa WNW 1.6mph /  2.6km/h 4.3mph /  6.9km/h 96% 0in /  0.0mm
04:08 41.9 °F /  5.5 °C 40.8 °F /  4.9 °C 30.2in /  1020.9hPa West 1.6mph /  2.6km/h 4.3mph /  6.9km/h 96% 0in /  0.0mm
04:13 41.9 °F /  5.5 °C 40.8 °F /  4.9 °C 30.2in /  1020.9hPa WNW 1.1mph /  1.8km/h 3.4mph /  5.5km/h 96% 0in /  0.0mm
04:18 41.5 °F /  5.3 °C 40.5 °F /  4.7 °C 30.2in /  1020.9hPa Calm   2.7mph /  4.3km/h 96% 0in /  0.0mm
04:23 41.4 °F /  5.2 °C 40.3 °F /  4.6 °C 30.2in /  1020.9hPa Calm   2.5mph /  4.0km/h 96% 0in /  0.0mm
04:28 41.2 °F /  5.1 °C 40.1 °F /  4.5 °C 30.2in /  1020.9hPa West 2.9mph /  4.7km/h 3.1mph /  5.0km/h 96% 0in /  0.0mm
04:33 41.5 °F /  5.3 °C 40.6 °F /  4.8 °C 30.2in /  1020.9hPa NW 1.1mph /  1.8km/h 4mph /  6.4km/h 97% 0in /  0.0mm
04:38 41.9 °F /  5.5 °C 41.2 °F /  5.1 °C 30.2in /  1020.9hPa Calm   4mph /  6.4km/h 97% 0in /  0.0mm
04:44 42.3 °F /  5.7 °C 41.7 °F /  5.4 °C 30.2in /  1020.9hPa Calm   6mph /  9.7km/h 98% 0in /  0.0mm
04:49 42.4 °F /  5.8 °C 41.9 °F /  5.5 °C 30.2in /  1020.9hPa WNW 1.1mph /  1.8km/h 6mph /  9.7km/h 98% 0in /  0.0mm
04:54 42.6 °F /  5.9 °C 42.1 °F /  5.6 °C 30.2in /  1020.9hPa North 1.3mph /  2.1km/h 3.6mph /  5.8km/h 98% 0in /  0.0mm
04:59 42.6 °F /  5.9 °C 42.1 °F /  5.6 °C 30.2in /  1020.9hPa North 2.2mph /  3.5km/h 3.6mph /  5.8km/h 98% 0in /  0.0mm
05:04 42.8 °F /  6.0 °C 42.3 °F /  5.7 °C 30.2in /  1020.9hPa North 1.6mph /  2.6km/h 3.8mph /  6.1km/h 98% 0in /  0.0mm
05:09 43.2 °F /  6.2 °C 42.6 °F /  5.9 °C 30.2in /  1020.9hPa Calm   6mph /  9.7km/h 98% 0in /  0.0mm
05:14 43.3 °F /  6.3 °C 42.8 °F /  6.0 °C 30.2in /  1020.9hPa NNW 2.5mph /  4.0km/h 6.5mph /  10.5km/h 98% 0in /  0.0mm
05:19 43.3 °F /  6.3 °C 42.8 °F /  6.0 °C 30.2in /  1020.9hPa North 1.6mph /  2.6km/h 6.5mph /  10.5km/h 98% 0in /  0.0mm
05:24 43.3 °F /  6.3 °C 42.8 °F /  6.0 °C 30.2in /  1020.9hPa NNE 2.5mph /  4.0km/h 5.6mph /  9.0km/h 98% 0in /  0.0mm
05:29 43.3 °F /  6.3 °C 42.8 °F /  6.0 °C 30.2in /  1020.9hPa NNE 1.3mph /  2.1km/h 5.8mph /  9.3km/h 98% 0in /  0.0mm
05:34 43.2 °F /  6.2 °C 42.6 °F /  5.9 °C 30.2in /  1020.9hPa NNE 2.5mph /  4.0km/h 5.8mph /  9.3km/h 98% 0in /  0.0mm
05:39 43.2 °F /  6.2 °C 42.6 °F /  5.9 °C 30.2in /  1020.9hPa NNE 2.7mph /  4.3km/h 4.3mph /  6.9km/h 98% 0in /  0.0mm
05:44 43.2 °F /  6.2 °C 42.6 °F /  5.9 °C 30.2in /  1020.9hPa North 2mph /  3.2km/h 3.6mph /  5.8km/h 98% 0in /  0.0mm
05:49 43.2 °F /  6.2 °C 42.6 °F /  5.9 °C 30.2in /  1020.9hPa Calm   5.4mph /  8.7km/h 98% 0in /  0.0mm
05:54 43 °F /  6.1 °C 42.4 °F /  5.8 °C 30.2in /  1020.9hPa Calm   5.4mph /  8.7km/h 98% 0in /  0.0mm
05:55 43 °F /  6.1 °C 42.4 °F /  5.8 °C 30.2in /  1020.9hPa Calm   5.4mph /  8.7km/h 98% 0in /  0.0mm
06:00 43 °F /  6.1 °C 42.4 °F /  5.8 °C 30.2in /  1020.9hPa Calm   3.4mph /  5.5km/h 98% 0in /  0.0mm
06:05 42.8 °F /  6.0 °C 42.3 °F /  5.7 °C 30.2in /  1020.9hPa Calm   2.9mph /  4.7km/h 98% 0in /  0.0mm
06:10 42.6 °F /  5.9 °C 42.1 °F /  5.6 °C 30.2in /  1020.9hPa WNW 2.5mph /  4.0km/h 2.9mph /  4.7km/h 98% 0in /  0.0mm
06:15 42.8 °F /  6.0 °C 42.3 °F /  5.7 °C 30.2in /  1020.9hPa NNW 2mph /  3.2km/h 4.9mph /  7.9km/h 98% 0in /  0.0mm
06:20 42.8 °F /  6.0 °C 42.3 °F /  5.7 °C 30.2in /  1020.9hPa North 3.4mph /  5.5km/h 7.6mph /  12.2km/h 98% 0in /  0.0mm
06:25 43 °F /  6.1 °C 42.4 °F /  5.8 °C 30.2in /  1021.9hPa WNW 6.3mph /  10.1km/h 7.6mph /  12.2km/h 98% 0in /  0.0mm
06:30 43.2 °F /  6.2 °C 42.6 °F /  5.9 °C 30.2in /  1021.9hPa NNW 3.1mph /  5.0km/h 7.4mph /  11.9km/h 98% 0in /  0.0mm
06:35 43.2 °F /  6.2 °C 42.6 °F /  5.9 °C 30.2in /  1021.9hPa WNW 3.8mph /  6.1km/h 7.4mph /  11.9km/h 98% 0in /  0.0mm
06:40 43.2 °F /  6.2 °C 42.6 °F /  5.9 °C 30.2in /  1021.9hPa North 4mph /  6.4km/h 7.4mph /  11.9km/h 98% 0in /  0.0mm
06:45 43.3 °F /  6.3 °C 42.8 °F /  6.0 °C 30.2in /  1021.9hPa NNW 5.8mph /  9.3km/h 7.6mph /  12.2km/h 98% 0in /  0.0mm
06:50 43.3 °F /  6.3 °C 42.8 °F /  6.0 °C 30.2in /  1021.9hPa NNW 3.4mph /  5.5km/h 7.6mph /  12.2km/h 98% 0in /  0.0mm
06:56 43.2 °F /  6.2 °C 42.6 °F /  5.9 °C 30.2in /  1021.9hPa WNW 2mph /  3.2km/h 6.3mph /  10.1km/h 98% 0in /  0.0mm
07:01 43.2 °F /  6.2 °C 42.6 °F /  5.9 °C 30.2in /  1021.9hPa NNW 6mph /  9.7km/h 6mph /  9.7km/h 98% 0in /  0.0mm
07:06 43.3 °F /  6.3 °C 42.8 °F /  6.0 °C 30.2in /  1021.9hPa WNW 4.7mph /  7.6km/h 6mph /  9.7km/h 98% 0in /  0.0mm
07:11 43.5 °F /  6.4 °C 43 °F /  6.1 °C 30.2in /  1021.9hPa North 7.2mph /  11.6km/h 9.2mph /  14.8km/h 98% 0in /  0.0mm
07:16 43.5 °F /  6.4 °C 43 °F /  6.1 °C 30.2in /  1021.9hPa WNW 2.9mph /  4.7km/h 9.2mph /  14.8km/h 98% 0in /  0.0mm
07:21 43.5 °F /  6.4 °C 43.2 °F /  6.2 °C 30.2in /  1021.9hPa NNW 3.4mph /  5.5km/h 7.8mph /  12.6km/h 98% 0in /  0.0mm
07:26 44.1 °F /  6.7 °C 43.5 °F /  6.4 °C 30.2in /  1022.9hPa NNW 8.1mph /  13.0km/h 11mph /  17.7km/h 98% 0in /  0.0mm
07:31 44.2 °F /  6.8 °C 43.5 °F /  6.4 °C 30.2in /  1022.9hPa NNW 8.9mph /  14.3km/h 11mph /  17.7km/h 98% 0in /  0.0mm
07:36 44.2 °F /  6.8 °C 43.9 °F /  6.6 °C 30.2in /  1022.9hPa NNW 3.8mph /  6.1km/h 12.8mph /  20.6km/h 98% 0in /  0.0mm
07:41 44.4 °F /  6.9 °C 44.1 °F /  6.7 °C 30.2in /  1022.9hPa NNW 7.2mph /  11.6km/h 12.8mph /  20.6km/h 98% 0in /  0.0mm
07:46 45 °F /  7.2 °C 44.2 °F /  6.8 °C 30.2in /  1022.9hPa North 4.9mph /  7.9km/h 11.4mph /  18.3km/h 98% 0in /  0.0mm
07:51 45.1 °F /  7.3 °C 44.8 °F /  7.1 °C 30.2in /  1022.9hPa West 5.8mph /  9.3km/h 10.3mph /  16.6km/h 98% 0in /  0.0mm
07:56 45.7 °F /  7.6 °C 45.1 °F /  7.3 °C 30.2in /  1022.9hPa North 5.4mph /  8.7km/h 12.5mph /  20.1km/h 98% 0in /  0.0mm
08:01 46 °F /  7.8 °C 45.7 °F /  7.6 °C 30.2in /  1022.9hPa North 5.8mph /  9.3km/h 13.2mph /  21.2km/h 98% 0in /  0.0mm
08:06 46.6 °F /  8.1 °C 45.9 °F /  7.7 °C 30.2in /  1022.9hPa North 6mph /  9.7km/h 13.2mph /  21.2km/h 98% 0in /  0.0mm
08:11 46.6 °F /  8.1 °C 46 °F /  7.8 °C 30.2in /  1023.9hPa North 8.7mph /  14.0km/h 13mph /  20.9km/h 98% 0in /  0.0mm
08:16 46.8 °F /  8.2 °C 46.2 °F /  7.9 °C 30.2in /  1023.9hPa North 6.3mph /  10.1km/h 12.3mph /  19.8km/h 98% 0in /  0.0mm
08:21 47.1 °F /  8.4 °C 46.6 °F /  8.1 °C 30.2in /  1023.9hPa North 5.4mph /  8.7km/h 12.3mph /  19.8km/h 98% 0in /  0.0mm
08:26 47.5 °F /  8.6 °C 46.9 °F /  8.3 °C 30.2in /  1023.9hPa NW 8.7mph /  14.0km/h 10.3mph /  16.6km/h 98% 0in /  0.0mm
08:31 47.8 °F /  8.8 °C 47.3 °F /  8.5 °C 30.2in /  1023.9hPa NNW 4mph /  6.4km/h 9.8mph /  15.8km/h 98% 0in /  0.0mm
08:36 47.8 °F /  8.8 °C 47.3 °F /  8.5 °C 30.2in /  1023.9hPa North 5.4mph /  8.7km/h 9.8mph /  15.8km/h 98% 0in /  0.0mm
08:41 47.8 °F /  8.8 °C 47.3 °F /  8.5 °C 30.3in /  1024.9hPa North 3.6mph /  5.8km/h 7.8mph /  12.6km/h 98% 0in /  0.0mm
08:46 48 °F /  8.9 °C 47.5 °F /  8.6 °C 30.3in /  1024.9hPa North 4.3mph /  6.9km/h 4.9mph /  7.9km/h 98% 0in /  0.0mm
08:51 48.2 °F /  9.0 °C 47.7 °F /  8.7 °C 30.3in /  1024.9hPa NNW 2.5mph /  4.0km/h 4.9mph /  7.9km/h 98% 0in /  0.0mm
08:56 48.2 °F /  9.0 °C 47.7 °F /  8.7 °C 30.3in /  1024.9hPa North 3.6mph /  5.8km/h 7.8mph /  12.6km/h 98% 0in /  0.0mm
09:01 48.4 °F /  9.1 °C 47.8 °F /  8.8 °C 30.3in /  1024.9hPa North 4.9mph /  7.9km/h 7.8mph /  12.6km/h 98% 0in /  0.0mm
09:06 48.4 °F /  9.1 °C 47.8 °F /  8.8 °C 30.3in /  1024.9hPa North 4.5mph /  7.2km/h 7.4mph /  11.9km/h 98% 0in /  0.0mm
09:11 48.6 °F /  9.2 °C 48 °F /  8.9 °C 30.3in /  1024.9hPa North 3.6mph /  5.8km/h 7.4mph /  11.9km/h 98% 0in /  0.0mm
09:16 48.7 °F /  9.3 °C 48.2 °F /  9.0 °C 30.3in /  1024.9hPa NNW 5.4mph /  8.7km/h 6.5mph /  10.5km/h 98% 0in /  0.0mm
09:21 48.7 °F /  9.3 °C 48.2 °F /  9.0 °C 30.3in /  1024.9hPa NE 2.9mph /  4.7km/h 6mph /  9.7km/h 98% 0in /  0.0mm
09:26 48.9 °F /  9.4 °C 48.4 °F /  9.1 °C 30.3in /  1024.9hPa NNE 2.2mph /  3.5km/h 5.6mph /  9.0km/h 98% 0in /  0.0mm
09:31 48.9 °F /  9.4 °C 48.4 °F /  9.1 °C 30.3in /  1024.9hPa NW 3.1mph /  5.0km/h 6.3mph /  10.1km/h 98% 0in /  0.0mm
09:36 49.1 °F /  9.5 °C 48.6 °F /  9.2 °C 30.3in /  1024.9hPa North 3.8mph /  6.1km/h 6.3mph /  10.1km/h 98% 0in /  0.0mm
09:41 49.3 °F /  9.6 °C 48.7 °F /  9.3 °C 30.2in /  1023.9hPa NNW 3.1mph /  5.0km/h 5.6mph /  9.0km/h 98% 0in /  0.0mm
09:46 49.5 °F /  9.7 °C 48.9 °F /  9.4 °C 30.2in /  1023.9hPa NNW 4mph /  6.4km/h 5.8mph /  9.3km/h 98% 0in /  0.0mm
09:51 49.6 °F /  9.8 °C 49.1 °F /  9.5 °C 30.2in /  1023.9hPa NNW 2.9mph /  4.7km/h 5.8mph /  9.3km/h 98% 0in /  0.0mm
09:56 49.8 °F /  9.9 °C 49.3 °F /  9.6 °C 30.3in /  1024.9hPa NW 3.6mph /  5.8km/h 6mph /  9.7km/h 98% 0in /  0.0mm
10:01 49.8 °F /  9.9 °C 49.3 °F /  9.6 °C 30.3in /  1024.9hPa North 7.6mph /  12.2km/h 7.6mph /  12.2km/h 98% 0in /  0.0mm
10:06 50 °F /  10.0 °C 49.5 °F /  9.7 °C 30.3in /  1024.9hPa NNW 4.3mph /  6.9km/h 8.7mph /  14.0km/h 98% 0in /  0.0mm
10:11 50.2 °F /  10.1 °C 49.6 °F /  9.8 °C 30.3in /  1026.0hPa NNW 5.4mph /  8.7km/h 8.7mph /  14.0km/h 98% 0in /  0.0mm
10:16 50.7 °F /  10.4 °C 50.2 °F /  10.1 °C 30.3in /  1026.0hPa North 4.7mph /  7.6km/h 7.6mph /  12.2km/h 98% 0in /  0.0mm
10:21 51.1 °F /  10.6 °C 50.5 °F /  10.3 °C 30.3in /  1026.0hPa North 2.7mph /  4.3km/h 7.6mph /  12.2km/h 98% 0in /  0.0mm
10:26 51.3 °F /  10.7 °C 50.7 °F /  10.4 °C 30.3in /  1026.0hPa North 6mph /  9.7km/h 9.8mph /  15.8km/h 98% 0in /  0.0mm
10:31 51.4 °F /  10.8 °C 50.5 °F /  10.3 °C 30.3in /  1026.0hPa North 5.8mph /  9.3km/h 9.8mph /  15.8km/h 97% 0in /  0.0mm
10:36 51.8 °F /  11.0 °C 50.9 °F /  10.5 °C 30.3in /  1026.0hPa NNW 8.5mph /  13.7km/h 9.6mph /  15.4km/h 97% 0in /  0.0mm
10:41 51.8 °F /  11.0 °C 50.9 °F /  10.5 °C 30.3in /  1026.0hPa NNE 3.6mph /  5.8km/h 9.6mph /  15.4km/h 97% 0in /  0.0mm
10:46 52 °F /  11.1 °C 50.7 °F /  10.4 °C 30.3in /  1026.0hPa NNW 4.9mph /  7.9km/h 8.5mph /  13.7km/h 96% 0in /  0.0mm
10:51 51.6 °F /  10.9 °C 50.5 °F /  10.3 °C 30.3in /  1026.0hPa NW 5.8mph /  9.3km/h 12.1mph /  19.5km/h 96% 0in /  0.0mm
10:56 51.4 °F /  10.8 °C 50.4 °F /  10.2 °C 30.3in /  1026.0hPa NNW 7.2mph /  11.6km/h 12.1mph /  19.5km/h 96% 0in /  0.0mm
11:01 51.6 °F /  10.9 °C 50.5 °F /  10.3 °C 30.3in /  1026.0hPa North 6.7mph /  10.8km/h 7.8mph /  12.6km/h 96% 0in /  0.0mm
11:06 51.8 °F /  11.0 °C 50.4 °F /  10.2 °C 30.3in /  1026.0hPa North 3.4mph /  5.5km/h 7.4mph /  11.9km/h 95% 0in /  0.0mm
11:11 52.3 °F /  11.3 °C 50.9 °F /  10.5 °C 30.3in /  1027.0hPa North 4mph /  6.4km/h 8.5mph /  13.7km/h 95% 0in /  0.0mm
11:16 52.5 °F /  11.4 °C 51.1 °F /  10.6 °C 30.3in /  1027.0hPa NNE 3.4mph /  5.5km/h 10.5mph /  16.9km/h 95% 0in /  0.0mm
11:21 52.5 °F /  11.4 °C 51.3 °F /  10.7 °C 30.3in /  1027.0hPa North 4.3mph /  6.9km/h 10.5mph /  16.9km/h 95% 0in /  0.0mm
11:26 52.9 °F /  11.6 °C 51.4 °F /  10.8 °C 30.3in /  1027.0hPa North 4.3mph /  6.9km/h 8.5mph /  13.7km/h 95% 0in /  0.0mm
11:32 53.1 °F /  11.7 °C 51.3 °F /  10.7 °C 30.3in /  1027.0hPa NNW 5.8mph /  9.3km/h 8.5mph /  13.7km/h 94% 0in /  0.0mm
11:37 53.8 °F /  12.1 °C 52 °F /  11.1 °C 30.3in /  1027.0hPa WNW 3.4mph /  5.5km/h 6.3mph /  10.1km/h 94% 0in /  0.0mm
11:42 54 °F /  12.2 °C 52.2 °F /  11.2 °C 30.3in /  1027.0hPa NNW 4.3mph /  6.9km/h 8.7mph /  14.0km/h 94% 0in /  0.0mm
11:47 54 °F /  12.2 °C 52 °F /  11.1 °C 30.3in /  1027.0hPa North 2.7mph /  4.3km/h 8.7mph /  14.0km/h 93% 0in /  0.0mm
11:52 53.8 °F /  12.1 °C 51.4 °F /  10.8 °C 30.3in /  1027.0hPa North 6mph /  9.7km/h 10.7mph /  17.2km/h 92% 0in /  0.0mm
11:57 53.8 °F /  12.1 °C 51.1 °F /  10.6 °C 30.3in /  1027.0hPa NNW 9.8mph /  15.8km/h 10.7mph /  17.2km/h 91% 0in /  0.0mm
12:02 54 °F /  12.2 °C 51.3 °F /  10.7 °C 30.3in /  1027.0hPa North 7.4mph /  11.9km/h 9.8mph /  15.8km/h 91% 0in /  0.0mm
12:07 53.8 °F /  12.1 °C 50.7 °F /  10.4 °C 30.3in /  1027.0hPa North 4mph /  6.4km/h 10.5mph /  16.9km/h 90% 0in /  0.0mm
12:12 53.2 °F /  11.8 °C 50 °F /  10.0 °C 30.3in /  1027.0hPa NNW 6.5mph /  10.5km/h 10.5mph /  16.9km/h 89% 0in /  0.0mm
12:17 53.2 °F /  11.8 °C 50.2 °F /  10.1 °C 30.3in /  1027.0hPa NNE 6mph /  9.7km/h 10.3mph /  16.6km/h 89% 0in /  0.0mm
12:22 53.2 °F /  11.8 °C 50.4 °F /  10.2 °C 30.3in /  1027.0hPa North 5.6mph /  9.0km/h 10.1mph /  16.3km/h 90% 0in /  0.0mm
12:27 53.4 °F /  11.9 °C 50.4 °F /  10.2 °C 30.3in /  1027.0hPa NNE 6.5mph /  10.5km/h 10.1mph /  16.3km/h 89% 0in /  0.0mm
12:32 53.8 °F /  12.1 °C 50.5 °F /  10.3 °C 30.3in /  1027.0hPa NNW 6.5mph /  10.5km/h 10.1mph /  16.3km/h 89% 0in /  0.0mm
12:37 54 °F /  12.2 °C 50.7 °F /  10.4 °C 30.3in /  1026.0hPa WNW 7.8mph /  12.6km/h 10.5mph /  16.9km/h 89% 0in /  0.0mm
12:42 54.9 °F /  12.7 °C 51.3 °F /  10.7 °C 30.3in /  1026.0hPa North 10.5mph /  16.9km/h 10.5mph /  16.9km/h 88% 0in /  0.0mm
12:47 54.9 °F /  12.7 °C 51.1 °F /  10.6 °C 30.3in /  1026.0hPa North 10.3mph /  16.6km/h 10.5mph /  16.9km/h 87% 0in /  0.0mm
12:52 55 °F /  12.8 °C 50.4 °F /  10.2 °C 30.3in /  1026.0hPa North 6.3mph /  10.1km/h 12.1mph /  19.5km/h 84% 0in /  0.0mm
12:58 55.6 °F /  13.1 °C 50.9 °F /  10.5 °C 30.3in /  1026.0hPa NNW 5.6mph /  9.0km/h 12.1mph /  19.5km/h 84% 0in /  0.0mm
13:03 55.6 °F /  13.1 °C 50.9 °F /  10.5 °C 30.3in /  1026.0hPa NW 4mph /  6.4km/h 9.6mph /  15.4km/h 84% 0in /  0.0mm
13:08 56.1 °F /  13.4 °C 51.4 °F /  10.8 °C 30.3in /  1027.0hPa North 4.5mph /  7.2km/h 7.8mph /  12.6km/h 84% 0in /  0.0mm
13:13 56.7 °F /  13.7 °C 51.6 °F /  10.9 °C 30.3in /  1027.0hPa North 6mph /  9.7km/h 10.1mph /  16.3km/h 83% 0in /  0.0mm
13:18 56.8 °F /  13.8 °C 51.1 °F /  10.6 °C 30.3in /  1027.0hPa NW 8.1mph /  13.0km/h 11mph /  17.7km/h 81% 0in /  0.0mm
13:23 57.4 °F /  14.1 °C 51.3 °F /  10.7 °C 30.3in /  1027.0hPa North 5.4mph /  8.7km/h 11mph /  17.7km/h 80% 0in /  0.0mm
13:28 57.7 °F /  14.3 °C 50.9 °F /  10.5 °C 30.3in /  1027.0hPa North 6mph /  9.7km/h 10.1mph /  16.3km/h 78% 0in /  0.0mm
13:33 58.3 °F /  14.6 °C 51.1 °F /  10.6 °C 30.3in /  1027.0hPa North 9.8mph /  15.8km/h 10.1mph /  16.3km/h 77% 0in /  0.0mm
13:38 57.9 °F /  14.4 °C 50.2 °F /  10.1 °C 30.3in /  1027.0hPa North 5.4mph /  8.7km/h 9.8mph /  15.8km/h 75% 0in /  0.0mm
13:43 57.4 °F /  14.1 °C 49.8 °F /  9.9 °C 30.3in /  1027.0hPa North 5.6mph /  9.0km/h 9.8mph /  15.8km/h 76% 0in /  0.0mm
13:48 57.2 °F /  14.0 °C 49.6 °F /  9.8 °C 30.3in /  1027.0hPa WNW 5.4mph /  8.7km/h 7.4mph /  11.9km/h 76% 0in /  0.0mm
13:53 56.7 °F /  13.7 °C 48.9 °F /  9.4 °C 30.3in /  1027.0hPa NNW 6.5mph /  10.5km/h 8.1mph /  13.0km/h 75% 0in /  0.0mm
13:58 56.5 °F /  13.6 °C 48.7 °F /  9.3 °C 30.3in /  1027.0hPa North 8.1mph /  13.0km/h 8.7mph /  14.0km/h 75% 0in /  0.0mm
14:03 56.5 °F /  13.6 °C 48.7 °F /  9.3 °C 30.3in /  1027.0hPa NNE 2.7mph /  4.3km/h 8.7mph /  14.0km/h 75% 0in /  0.0mm
14:08 56.7 °F /  13.7 °C 48.9 °F /  9.4 °C 30.4in /  1028.0hPa North 3.1mph /  5.0km/h 11mph /  17.7km/h 75% 0in /  0.0mm
14:13 56.5 °F /  13.6 °C 48.7 °F /  9.3 °C 30.4in /  1028.0hPa West 8.5mph /  13.7km/h 11mph /  17.7km/h 75% 0in /  0.0mm
14:18 56.3 °F /  13.5 °C 48.2 °F /  9.0 °C 30.4in /  1028.0hPa NNW 6.5mph /  10.5km/h 10.1mph /  16.3km/h 74% 0in /  0.0mm
14:23 56.8 °F /  13.8 °C 48.7 °F /  9.3 °C 30.3in /  1027.0hPa WNW 4.3mph /  6.9km/h 9.8mph /  15.8km/h 74% 0in /  0.0mm
14:28 56.8 °F /  13.8 °C 48.7 °F /  9.3 °C 30.3in /  1027.0hPa North 4.9mph /  7.9km/h 9.8mph /  15.8km/h 74% 0in /  0.0mm
14:33 56.5 °F /  13.6 °C 48.4 °F /  9.1 °C 30.3in /  1027.0hPa NNE 8.1mph /  13.0km/h 8.1mph /  13.0km/h 74% 0in /  0.0mm
14:38 55.9 °F /  13.3 °C 47.5 °F /  8.6 °C 30.4in /  1028.0hPa North 5.4mph /  8.7km/h 9.8mph /  15.8km/h 73% 0in /  0.0mm
14:43 56.1 °F /  13.4 °C 48 °F /  8.9 °C 30.4in /  1028.0hPa NW 5.6mph /  9.0km/h 10.5mph /  16.9km/h 74% 0in /  0.0mm
14:48 56.8 °F /  13.8 °C 48.4 °F /  9.1 °C 30.4in /  1028.0hPa North 8.5mph /  13.7km/h 10.7mph /  17.2km/h 73% 0in /  0.0mm
14:53 57 °F /  13.9 °C 48.6 °F /  9.2 °C 30.4in /  1028.0hPa North 4.3mph /  6.9km/h 10.7mph /  17.2km/h 73% 0in /  0.0mm
14:54 56.8 °F /  13.8 °C 47.8 °F /  8.8 °C 30.4in /  1028.0hPa North 3.4mph /  5.5km/h 10.7mph /  17.2km/h 72% 0in /  0.0mm
14:59 56.8 °F /  13.8 °C 47.8 °F /  8.8 °C 30.4in /  1028.0hPa North 5.8mph /  9.3km/h 8.5mph /  13.7km/h 72% 0in /  0.0mm
15:04 56.8 °F /  13.8 °C 47.8 °F /  8.8 °C 30.4in /  1028.0hPa NNW 4mph /  6.4km/h 8.5mph /  13.7km/h 72% 0in /  0.0mm
15:09 57.2 °F /  14.0 °C 48.4 °F /  9.1 °C 30.4in /  1028.0hPa NNW 4.3mph /  6.9km/h 8.1mph /  13.0km/h 72% 0in /  0.0mm
15:14 56.7 °F /  13.7 °C 47.5 °F /  8.6 °C 30.4in /  1028.0hPa NNW 2mph /  3.2km/h 8.1mph /  13.0km/h 71% 0in /  0.0mm
15:19 57.2 °F /  14.0 °C 48.4 °F /  9.1 °C 30.4in /  1028.0hPa NW 6.5mph /  10.5km/h 8.5mph /  13.7km/h 72% 0in /  0.0mm
15:24 57.4 °F /  14.1 °C 48.4 °F /  9.1 °C 30.4in /  1028.0hPa North 3.4mph /  5.5km/h 10.7mph /  17.2km/h 72% 0in /  0.0mm
15:29 57.4 °F /  14.1 °C 48 °F /  8.9 °C 30.4in /  1028.0hPa West 4.5mph /  7.2km/h 10.7mph /  17.2km/h 71% 0in /  0.0mm
15:34 57.2 °F /  14.0 °C 47.5 °F /  8.6 °C 30.4in /  1028.0hPa North 6mph /  9.7km/h 12.3mph /  19.8km/h 70% 0in /  0.0mm
15:39 57.2 °F /  14.0 °C 47.5 °F /  8.6 °C 30.4in /  1029.0hPa NNW 5.8mph /  9.3km/h 12.3mph /  19.8km/h 70% 0in /  0.0mm
15:44 57.4 °F /  14.1 °C 47.7 °F /  8.7 °C 30.4in /  1029.0hPa NNW 6mph /  9.7km/h 8.7mph /  14.0km/h 70% 0in /  0.0mm
15:49 57.2 °F /  14.0 °C 47.1 °F /  8.4 °C 30.4in /  1029.0hPa NNW 3.8mph /  6.1km/h 8.7mph /  14.0km/h 69% 0in /  0.0mm
15:54 56.7 °F /  13.7 °C 45.9 °F /  7.7 °C 30.4in /  1028.0hPa NNW 6.3mph /  10.1km/h 8.7mph /  14.0km/h 67% 0in /  0.0mm
15:59 56.7 °F /  13.7 °C 46.2 °F /  7.9 °C 30.4in /  1028.0hPa WNW 3.6mph /  5.8km/h 10.1mph /  16.3km/h 68% 0in /  0.0mm
16:04 57 °F /  13.9 °C 46.9 °F /  8.3 °C 30.4in /  1028.0hPa North 4.5mph /  7.2km/h 10.1mph /  16.3km/h 69% 0in /  0.0mm
16:10 56.5 °F /  13.6 °C 46 °F /  7.8 °C 30.4in /  1028.0hPa North 8.7mph /  14.0km/h 8.7mph /  14.0km/h 68% 0in /  0.0mm
16:15 56.3 °F /  13.5 °C 46.2 °F /  7.9 °C 30.4in /  1028.0hPa NNW 4.7mph /  7.6km/h 10.5mph /  16.9km/h 69% 0in /  0.0mm
16:20 56.5 °F /  13.6 °C 46.8 °F /  8.2 °C 30.4in /  1028.0hPa NNW 6.5mph /  10.5km/h 10.5mph /  16.9km/h 70% 0in /  0.0mm
16:24 55.8 °F /  13.2 °C 45.3 °F /  7.4 °C 30.4in /  1029.0hPa North 7.2mph /  11.6km/h 9.4mph /  15.1km/h 68% 0in /  0.0mm
16:30 56.1 °F /  13.4 °C 46.6 °F /  8.1 °C 30.4in /  1029.0hPa NNW 1.1mph /  1.8km/h 9.4mph /  15.1km/h 70% 0in /  0.0mm
16:35 56.5 °F /  13.6 °C 46.8 °F /  8.2 °C 30.4in /  1029.0hPa North 3.1mph /  5.0km/h 6mph /  9.7km/h 70% 0in /  0.0mm
16:40 56.3 °F /  13.5 °C 46.2 °F /  7.9 °C 30.4in /  1029.0hPa NW 2.7mph /  4.3km/h 6.3mph /  10.1km/h 69% 0in /  0.0mm
16:45 56.1 °F /  13.4 °C 46 °F /  7.8 °C 30.4in /  1029.0hPa North 3.8mph /  6.1km/h 8.7mph /  14.0km/h 69% 0in /  0.0mm
16:50 55.8 °F /  13.2 °C 45.3 °F /  7.4 °C 30.4in /  1029.0hPa NNW 2.2mph /  3.5km/h 8.7mph /  14.0km/h 68% 0in /  0.0mm
16:55 55.8 °F /  13.2 °C 45.9 °F /  7.7 °C 30.4in /  1029.0hPa North 4.9mph /  7.9km/h 8.1mph /  13.0km/h 69% 0in /  0.0mm
17:00 55.8 °F /  13.2 °C 45.9 °F /  7.7 °C 30.4in /  1029.0hPa NW 3.4mph /  5.5km/h 6.3mph /  10.1km/h 69% 0in /  0.0mm
17:05 55.6 °F /  13.1 °C 45.7 °F /  7.6 °C 30.4in /  1029.0hPa North 4.3mph /  6.9km/h 6.3mph /  10.1km/h 69% 0in /  0.0mm
17:10 55.8 °F /  13.2 °C 45.9 °F /  7.7 °C 30.4in /  1028.0hPa North 2.9mph /  4.7km/h 6.3mph /  10.1km/h 69% 0in /  0.0mm
17:15 55.6 °F /  13.1 °C 45.7 °F /  7.6 °C 30.4in /  1028.0hPa NNE 6.3mph /  10.1km/h 6.3mph /  10.1km/h 69% 0in /  0.0mm
17:20 55.6 °F /  13.1 °C 45.1 °F /  7.3 °C 30.4in /  1028.0hPa NNW 3.4mph /  5.5km/h 6.3mph /  10.1km/h 68% 0in /  0.0mm
17:25 55.2 °F /  12.9 °C 45 °F /  7.2 °C 30.4in /  1029.0hPa North 1.3mph /  2.1km/h 5.8mph /  9.3km/h 68% 0in /  0.0mm
17:30 54.9 °F /  12.7 °C 44.8 °F /  7.1 °C 30.4in /  1029.0hPa NNE 3.6mph /  5.8km/h 6mph /  9.7km/h 69% 0in /  0.0mm
17:35 54.7 °F /  12.6 °C 44.6 °F /  7.0 °C 30.4in /  1029.0hPa North 5.6mph /  9.0km/h 7.2mph /  11.6km/h 69% 0in /  0.0mm
17:40 54 °F /  12.2 °C 44.1 °F /  6.7 °C 30.4in /  1029.0hPa NNE 4.3mph /  6.9km/h 7.2mph /  11.6km/h 69% 0in /  0.0mm
17:45 54 °F /  12.2 °C 44.4 °F /  6.9 °C 30.4in /  1029.0hPa NNW 2.9mph /  4.7km/h 7.2mph /  11.6km/h 70% 0in /  0.0mm
17:50 53.8 °F /  12.1 °C 44.4 °F /  6.9 °C 30.4in /  1029.0hPa North 2.9mph /  4.7km/h 6.3mph /  10.1km/h 71% 0in /  0.0mm
17:55 53.8 °F /  12.1 °C 44.4 °F /  6.9 °C 30.4in /  1029.0hPa WNW 2.5mph /  4.0km/h 6.3mph /  10.1km/h 71% 0in /  0.0mm
18:00 53.2 °F /  11.8 °C 44.2 °F /  6.8 °C 30.4in /  1029.0hPa WNW 1.6mph /  2.6km/h 5.6mph /  9.0km/h 71% 0in /  0.0mm
18:05 52.9 °F /  11.6 °C 44.1 °F /  6.7 °C 30.4in /  1029.0hPa North 3.1mph /  5.0km/h 5.6mph /  9.0km/h 72% 0in /  0.0mm
18:10 52.5 °F /  11.4 °C 43.9 °F /  6.6 °C 30.4in /  1029.0hPa WNW 2.7mph /  4.3km/h 4mph /  6.4km/h 72% 0in /  0.0mm
18:15 52.3 °F /  11.3 °C 43.5 °F /  6.4 °C 30.4in /  1029.0hPa WNW 2.5mph /  4.0km/h 4.9mph /  7.9km/h 72% 0in /  0.0mm
18:20 51.8 °F /  11.0 °C 43 °F /  6.1 °C 30.4in /  1029.0hPa NW 3.4mph /  5.5km/h 4.9mph /  7.9km/h 72% 0in /  0.0mm
18:25 51.4 °F /  10.8 °C 43 °F /  6.1 °C 30.4in /  1030.0hPa NNW 2.7mph /  4.3km/h 4.7mph /  7.6km/h 73% 0in /  0.0mm
18:30 51.3 °F /  10.7 °C 43 °F /  6.1 °C 30.4in /  1030.0hPa North 2.5mph /  4.0km/h 4mph /  6.4km/h 73% 0in /  0.0mm
18:35 50.7 °F /  10.4 °C 42.6 °F /  5.9 °C 30.4in /  1030.0hPa NNW 3.1mph /  5.0km/h 4.3mph /  6.9km/h 74% 0in /  0.0mm
18:40 50.5 °F /  10.3 °C 42.4 °F /  5.8 °C 30.4in /  1030.0hPa NNW 2.7mph /  4.3km/h 4.3mph /  6.9km/h 74% 0in /  0.0mm
18:45 50 °F /  10.0 °C 42.4 °F /  5.8 °C 30.4in /  1030.0hPa North 2.5mph /  4.0km/h 3.8mph /  6.1km/h 75% 0in /  0.0mm
18:50 49.8 °F /  9.9 °C 42.3 °F /  5.7 °C 30.4in /  1030.0hPa WNW 2.9mph /  4.7km/h 4.3mph /  6.9km/h 75% 0in /  0.0mm
18:55 49.5 °F /  9.7 °C 42.3 °F /  5.7 °C 30.4in /  1030.0hPa NW 3.6mph /  5.8km/h 4.9mph /  7.9km/h 76% 0in /  0.0mm
19:00 49.3 °F /  9.6 °C 42.1 °F /  5.6 °C 30.4in /  1030.0hPa NW 2.7mph /  4.3km/h 4.9mph /  7.9km/h 76% 0in /  0.0mm
19:05 48.9 °F /  9.4 °C 42.1 °F /  5.6 °C 30.4in /  1030.0hPa Calm   3.8mph /  6.1km/h 77% 0in /  0.0mm
19:11 48.6 °F /  9.2 °C 41.7 °F /  5.4 °C 30.4in /  1030.0hPa NNW 3.1mph /  5.0km/h 3.8mph /  6.1km/h 77% 0in /  0.0mm
19:16 48.4 °F /  9.1 °C 41.5 °F /  5.3 °C 30.4in /  1030.0hPa North 2.7mph /  4.3km/h 3.8mph /  6.1km/h 77% 0in /  0.0mm
19:21 48 °F /  8.9 °C 41.5 °F /  5.3 °C 30.4in /  1030.0hPa Calm   3.8mph /  6.1km/h 78% 0in /  0.0mm
19:26 47.8 °F /  8.8 °C 41.7 °F /  5.4 °C 30.4in /  1030.0hPa NNW 1.3mph /  2.1km/h 3.6mph /  5.8km/h 79% 0in /  0.0mm
19:31 47.5 °F /  8.6 °C 41.4 °F /  5.2 °C 30.4in /  1030.0hPa Calm   2.7mph /  4.3km/h 79% 0in /  0.0mm
19:36 47.1 °F /  8.4 °C 41 °F /  5.0 °C 30.4in /  1030.0hPa Calm   2.7mph /  4.3km/h 79% 0in /  0.0mm
19:41 46.6 °F /  8.1 °C 40.5 °F /  4.7 °C 30.4in /  1030.0hPa Calm   0.9mph /  1.4km/h 79% 0in /  0.0mm
19:46 46.2 °F /  7.9 °C 40.5 °F /  4.7 °C 30.4in /  1030.0hPa Calm     80% 0in /  0.0mm
19:51 45.9 °F /  7.7 °C 39.9 °F /  4.4 °C 30.4in /  1030.0hPa Calm     80% 0in /  0.0mm
19:56 45.1 °F /  7.3 °C 39.4 °F /  4.1 °C 30.4in /  1031.0hPa Calm     80% 0in /  0.0mm
20:01 44.4 °F /  6.9 °C 39 °F /  3.9 °C 30.4in /  1031.0hPa Calm     81% 0in /  0.0mm
20:06 44.1 °F /  6.7 °C 38.8 °F /  3.8 °C 30.4in /  1031.0hPa Calm     82% 0in /  0.0mm
20:11 43.5 °F /  6.4 °C 38.3 °F /  3.5 °C 30.4in /  1031.0hPa Calm     82% 0in /  0.0mm
20:16 43.2 °F /  6.2 °C 38.3 °F /  3.5 °C 30.4in /  1031.0hPa Calm     83% 0in /  0.0mm
20:21 43 °F /  6.1 °C 38.5 °F /  3.6 °C 30.4in /  1031.0hPa Calm     84% 0in /  0.0mm
20:26 42.8 °F /  6.0 °C 38.3 °F /  3.5 °C 30.4in /  1031.0hPa Calm     84% 0in /  0.0mm
20:31 42.6 °F /  5.9 °C 38.1 °F /  3.4 °C 30.4in /  1031.0hPa Calm     84% 0in /  0.0mm
20:36 42.3 °F /  5.7 °C 38.3 °F /  3.5 °C 30.4in /  1031.0hPa Calm     86% 0in /  0.0mm
20:41 42.1 °F /  5.6 °C 38.1 °F /  3.4 °C 30.4in /  1031.0hPa Calm     86% 0in /  0.0mm
20:46 41.5 °F /  5.3 °C 37.6 °F /  3.1 °C 30.4in /  1031.0hPa Calm     86% 0in /  0.0mm
20:51 41 °F /  5.0 °C 37 °F /  2.8 °C 30.4in /  1031.0hPa Calm     86% 0in /  0.0mm
20:56 40.8 °F /  4.9 °C 37.2 °F /  2.9 °C 30.4in /  1031.0hPa Calm     87% 0in /  0.0mm
21:01 40.6 °F /  4.8 °C 37.4 °F /  3.0 °C 30.4in /  1031.0hPa Calm     88% 0in /  0.0mm
21:06 40.5 °F /  4.7 °C 37.2 °F /  2.9 °C 30.4in /  1031.0hPa Calm     88% 0in /  0.0mm
21:11 40.1 °F /  4.5 °C 36.9 °F /  2.7 °C 30.4in /  1030.0hPa Calm     88% 0in /  0.0mm
21:16 39.7 °F /  4.3 °C 36.5 °F /  2.5 °C 30.4in /  1030.0hPa Calm     88% 0in /  0.0mm
21:21 39.7 °F /  4.3 °C 36.5 °F /  2.5 °C 30.4in /  1030.0hPa Calm     88% 0in /  0.0mm
21:26 39.7 °F /  4.3 °C 36.9 °F /  2.7 °C 30.4in /  1031.0hPa Calm     89% 0in /  0.0mm
21:31 39.6 °F /  4.2 °C 36.9 °F /  2.7 °C 30.4in /  1031.0hPa Calm     90% 0in /  0.0mm
21:36 39.4 °F /  4.1 °C 36.7 °F /  2.6 °C 30.4in /  1031.0hPa Calm     90% 0in /  0.0mm
21:41 39.4 °F /  4.1 °C 36.7 °F /  2.6 °C 30.4in /  1031.0hPa Calm     90% 0in /  0.0mm
21:46 39.6 °F /  4.2 °C 37.2 °F /  2.9 °C 30.4in /  1031.0hPa Calm     91% 0in /  0.0mm
21:51 40.1 °F /  4.5 °C 37.8 °F /  3.2 °C 30.4in /  1031.0hPa West 1.6mph /  2.6km/h 3.4mph /  5.5km/h 91% 0in /  0.0mm
21:56 40.3 °F /  4.6 °C 38.1 °F /  3.4 °C 30.4in /  1031.0hPa WNW 2.7mph /  4.3km/h 3.4mph /  5.5km/h 92% 0in /  0.0mm
22:01 40.6 °F /  4.8 °C 38.5 °F /  3.6 °C 30.4in /  1031.0hPa West 2mph /  3.2km/h 2.7mph /  4.3km/h 92% 0in /  0.0mm
22:06 40.6 °F /  4.8 °C 38.8 °F /  3.8 °C 30.4in /  1031.0hPa Calm   2.9mph /  4.7km/h 93% 0in /  0.0mm
22:11 40.3 °F /  4.6 °C 38.1 °F /  3.4 °C 30.5in /  1032.1hPa West 2.5mph /  4.0km/h 2.9mph /  4.7km/h 92% 0in /  0.0mm
22:16 40.1 °F /  4.5 °C 37.9 °F /  3.3 °C 30.5in /  1032.1hPa West 1.6mph /  2.6km/h 2.7mph /  4.3km/h 92% 0in /  0.0mm
22:22 39.7 °F /  4.3 °C 37.6 °F /  3.1 °C 30.5in /  1032.1hPa West 2.2mph /  3.5km/h 2.5mph /  4.0km/h 92% 0in /  0.0mm
22:27 39.6 °F /  4.2 °C 37.6 °F /  3.1 °C 30.5in /  1032.1hPa West 2mph /  3.2km/h 2.7mph /  4.3km/h 92% 0in /  0.0mm
22:32 39.4 °F /  4.1 °C 37.2 °F /  2.9 °C 30.5in /  1032.1hPa Calm   2.7mph /  4.3km/h 92% 0in /  0.0mm
22:37 39.6 °F /  4.2 °C 37.8 °F /  3.2 °C 30.5in /  1032.1hPa West 2.7mph /  4.3km/h 2.7mph /  4.3km/h 93% 0in /  0.0mm
22:42 39.7 °F /  4.3 °C 38.1 °F /  3.4 °C 30.4in /  1031.0hPa Calm   2.7mph /  4.3km/h 94% 0in /  0.0mm
22:47 39.9 °F /  4.4 °C 38.5 °F /  3.6 °C 30.4in /  1031.0hPa Calm   2.7mph /  4.3km/h 94% 0in /  0.0mm
22:52 40.1 °F /  4.5 °C 38.5 °F /  3.6 °C 30.4in /  1031.0hPa Calm     94% 0in /  0.0mm
22:57 39.9 °F /  4.4 °C 38.5 °F /  3.6 °C 30.4in /  1031.0hPa West 2.9mph /  4.7km/h 2.9mph /  4.7km/h 94% 0in /  0.0mm
23:02 39.7 °F /  4.3 °C 38.1 °F /  3.4 °C 30.4in /  1031.0hPa WSW 3.1mph /  5.0km/h 4.3mph /  6.9km/h 94% 0in /  0.0mm
23:07 39.6 °F /  4.2 °C 37.9 °F /  3.3 °C 30.4in /  1031.0hPa Calm   4.3mph /  6.9km/h 94% 0in /  0.0mm
23:12 39.2 °F /  4.0 °C 37.8 °F /  3.2 °C 30.5in /  1032.1hPa Calm   3.4mph /  5.5km/h 94% 0in /  0.0mm
23:17 39.4 °F /  4.1 °C 37.8 °F /  3.2 °C 30.5in /  1032.1hPa Calm   2.5mph /  4.0km/h 94% 0in /  0.0mm
23:22 39.4 °F /  4.1 °C 38.1 °F /  3.4 °C 30.5in /  1032.1hPa Calm   2.5mph /  4.0km/h 95% 0in /  0.0mm
23:27 39.2 °F /  4.0 °C 37.9 °F /  3.3 °C 30.5in /  1032.1hPa Calm   2.2mph /  3.5km/h 95% 0in /  0.0mm
23:32 38.8 °F /  3.8 °C 37.6 °F /  3.1 °C 30.5in /  1032.1hPa Calm     95% 0in /  0.0mm
23:37 38.7 °F /  3.7 °C 37.4 °F /  3.0 °C 30.5in /  1032.1hPa Calm     95% 0in /  0.0mm
23:42 38.5 °F /  3.6 °C 37 °F /  2.8 °C 30.4in /  1031.0hPa Calm     95% 0in /  0.0mm
23:47 38.1 °F /  3.4 °C 36.9 °F /  2.7 °C 30.4in /  1031.0hPa Calm     95% 0in /  0.0mm
23:52 37.9 °F /  3.3 °C 36.7 °F /  2.6 °C 30.4in /  1031.0hPa Calm     95% 0in /  0.0mm
23:57 37.8 °F /  3.2 °C 36.5 °F /  2.5 °C 30.4in /  1031.0hPa Calm     95% 0in /  0.0mm
Données Historique de Météo Turbie

Mise a jour : 24/05/2018 15:26:13
Généré par Cumulus 1.9.4 (1099)